Time;durP1;ratioP1;P1;durP2;ratioP2;P2;SDS_P1;SDS_P2;PMS_P1;PMS_P2;Temp;Humidity;BMP_temperature;BMP_pressure;BME280_temperature;BME280_humidity;BME280_pressure;Samples;Min_cycle;Max_cycle;Signal;HPM_P1;HPM_P2
2022/12/11 00:02:07;;;;;;;73.50;30.17;;;0.50;99.90;;;;;;5079205;28;20458;-68
2022/12/11 00:04:34;;;;;;;66.90;31.00;;;0.50;99.90;;;;;;5080367;28;20492;-68
2022/12/11 00:07:01;;;;;;;72.27;28.77;;;0.60;99.90;;;;;;5083949;28;20464;-68
2022/12/11 00:09:29;;;;;;;71.67;29.03;;;0.70;99.90;;;;;;5090075;28;20751;-68
2022/12/11 00:11:56;;;;;;;69.37;27.00;;;0.60;99.90;;;;;;5082830;28;20853;-68
2022/12/11 00:14:23;;;;;;;71.63;29.20;;;0.60;99.90;;;;;;5078733;28;20886;-68
2022/12/11 00:16:52;;;;;;;75.13;28.87;;;0.60;99.90;;;;;;5087702;28;20587;-68
2022/12/11 00:19:19;;;;;;;83.53;29.13;;;0.60;99.90;;;;;;5088987;28;20450;-68
2022/12/11 00:21:46;;;;;;;70.43;27.57;;;0.70;99.90;;;;;;5081716;28;20468;-68
2022/12/11 00:24:13;;;;;;;75.83;28.73;;;0.70;99.90;;;;;;5081157;28;20462;-68
2022/12/11 00:26:40;;;;;;;61.57;27.07;;;0.70;99.90;;;;;;5077221;28;20473;-68
2022/12/11 00:29:09;;;;;;;64.13;29.50;;;0.60;99.90;;;;;;5077509;28;20514;-68
2022/12/11 00:31:36;;;;;;;76.67;28.90;;;0.70;99.90;;;;;;5081654;28;20486;-68
2022/12/11 00:34:05;;;;;;;71.50;29.37;;;0.60;99.90;;;;;;5087707;28;21430;-68
2022/12/11 00:36:31;;;;;;;67.23;29.27;;;0.60;99.90;;;;;;5084999;28;20972;-68
2022/12/11 00:38:58;;;;;;;79.17;30.77;;;0.70;99.90;;;;;;5080487;28;20472;-68
2022/12/11 00:41:26;;;;;;;69.43;29.80;;;0.70;99.90;;;;;;5080254;28;20489;-68
2022/12/11 00:43:53;;;;;;;81.93;30.23;;;0.70;99.90;;;;;;5077818;28;20488;-68
2022/12/11 00:46:20;;;;;;;80.47;31.43;;;0.70;99.90;;;;;;5075987;28;20474;-68
2022/12/11 00:48:48;;;;;;;72.57;31.17;;;0.80;99.90;;;;;;5074258;28;20474;-68
2022/12/11 00:51:17;;;;;;;67.90;29.27;;;0.80;99.90;;;;;;5078721;28;20458;-68
2022/12/11 00:53:44;;;;;;;66.63;32.37;;;0.80;99.90;;;;;;5080740;28;20489;-68
2022/12/11 00:56:13;;;;;;;75.33;28.80;;;0.80;99.90;;;;;;5080469;28;20485;-68
2022/12/11 00:58:40;;;;;;;76.03;28.83;;;0.80;99.90;;;;;;5075933;28;20466;-68
2022/12/11 01:01:08;;;;;;;65.97;25.77;;;0.90;99.90;;;;;;5080753;28;20486;-68
2022/12/11 01:03:35;;;;;;;67.17;27.80;;;0.80;99.90;;;;;;5073928;28;20931;-68
2022/12/11 01:06:02;;;;;;;58.03;27.77;;;0.70;99.90;;;;;;5088741;28;20471;-68
2022/12/11 01:08:30;;;;;;;71.50;28.33;;;0.80;99.90;;;;;;5080171;28;20469;-68
2022/12/11 01:11:05;;;;;;;61.13;25.10;;;0.80;99.90;;;;;;5076276;28;20466;-68
2022/12/11 01:13:33;;;;;;;68.53;28.13;;;0.80;99.90;;;;;;5076718;28;20472;-68
2022/12/11 01:16:00;;;;;;;68.07;27.70;;;0.90;99.90;;;;;;5078118;28;20848;-68
2022/12/11 01:18:27;;;;;;;75.87;26.80;;;0.90;99.90;;;;;;5078004;28;20817;-68
2022/12/11 01:20:54;;;;;;;56.37;27.03;;;0.90;99.90;;;;;;5089332;28;20473;-69
2022/12/11 01:23:21;;;;;;;71.23;28.60;;;0.80;99.90;;;;;;5079602;28;20522;-69
2022/12/11 01:25:50;;;;;;;73.17;26.40;;;0.90;99.90;;;;;;5075547;28;21066;-68
2022/12/11 01:28:16;;;;;;;68.80;28.37;;;0.90;99.90;;;;;;5074742;28;20984;-68
2022/12/11 01:30:44;;;;;;;61.63;28.80;;;0.90;99.90;;;;;;5076645;28;20481;-68
2022/12/11 01:33:11;;;;;;;62.00;25.73;;;0.90;99.90;;;;;;5083718;28;20467;-68
2022/12/11 01:35:39;;;;;;;62.33;27.70;;;1.00;99.90;;;;;;5081344;28;20459;-68
2022/12/11 01:38:06;;;;;;;61.80;26.53;;;0.90;99.90;;;;;;5080760;28;20894;-68
2022/12/11 01:40:32;;;;;;;66.53;29.80;;;0.90;99.90;;;;;;5076399;28;20462;-68
2022/12/11 01:43:01;;;;;;;68.80;30.70;;;0.80;99.90;;;;;;5078641;28;20454;-68
2022/12/11 01:45:37;;;;;;;67.57;27.90;;;0.80;99.90;;;;;;5075767;28;20472;-68
2022/12/11 01:48:08;;;;;;;62.77;29.50;;;0.90;99.90;;;;;;5084055;28;20546;-68
2022/12/11 01:50:39;;;;;;;63.87;28.00;;;0.90;99.90;;;;;;5078054;28;20473;-68
2022/12/11 01:53:10;;;;;;;48.90;25.37;;;1.00;99.90;;;;;;5081003;28;20832;-68
2022/12/11 01:55:39;;;;;;;56.47;27.10;;;0.80;99.90;;;;;;5079193;28;20458;-68
2022/12/11 01:58:08;;;;;;;62.97;29.17;;;0.60;99.90;;;;;;5074674;28;20463;-69
2022/12/11 02:00:35;;;;;;;64.87;27.67;;;0.70;99.90;;;;;;5076481;28;20462;-68
2022/12/11 02:03:03;;;;;;;59.70;27.50;;;0.80;99.90;;;;;;5076063;28;20587;-68
2022/12/11 02:05:29;;;;;;;55.47;25.87;;;1.00;99.90;;;;;;5077416;28;20482;-68
2022/12/11 02:07:58;;;;;;;54.37;26.13;;;1.00;99.90;;;;;;5078966;28;20468;-68
2022/12/11 02:10:34;;;;;;;54.37;27.20;;;0.90;99.90;;;;;;5080002;28;20463;-68
2022/12/11 02:13:07;;;;;;;50.20;24.67;;;0.80;99.90;;;;;;5076975;28;20488;-69
2022/12/11 02:15:41;;;;;;;53.27;26.27;;;1.00;99.90;;;;;;5081195;28;20458;-68
2022/12/11 02:18:17;;;;;;;63.17;30.07;;;0.90;99.90;;;;;;5082579;28;20588;-68
2022/12/11 02:20:50;;;;;;;58.73;26.80;;;1.00;99.90;;;;;;5078065;28;20465;-68
2022/12/11 02:23:42;;;;;;;48.80;26.30;;;0.90;99.90;;;;;;5082637;28;20478;-68
2022/12/11 02:26:22;;;;;;;50.43;26.10;;;0.90;99.90;;;;;;5073412;28;20870;-69
2022/12/11 02:28:56;;;;;;;50.47;25.30;;;0.90;99.90;;;;;;5080454;28;20478;-68
2022/12/11 02:31:27;;;;;;;52.97;26.40;;;1.00;99.90;;;;;;5079331;28;20453;-68
2022/12/11 02:34:03;;;;;;;62.90;26.47;;;1.10;99.90;;;;;;5077322;28;20458;-69
2022/12/11 02:36:34;;;;;;;52.30;26.73;;;1.10;99.90;;;;;;5071711;28;20848;-69
2022/12/11 02:39:03;;;;;;;58.13;25.73;;;1.00;99.90;;;;;;5073272;28;20461;-68
2022/12/11 02:41:32;;;;;;;51.10;25.60;;;1.00;99.90;;;;;;5074934;28;20473;-68
2022/12/11 02:44:04;;;;;;;44.53;24.83;;;1.10;99.90;;;;;;5080424;28;20450;-68
2022/12/11 02:46:32;;;;;;;55.57;25.87;;;1.00;99.90;;;;;;5079904;28;20461;-68
2022/12/11 02:48:59;;;;;;;56.63;25.10;;;1.00;99.90;;;;;;5086082;28;20878;-68
2022/12/11 02:51:30;;;;;;;55.30;24.43;;;0.90;99.90;;;;;;5085834;28;20453;-68
2022/12/11 02:53:59;;;;;;;64.20;26.63;;;1.00;99.90;;;;;;5072854;28;20482;-68
2022/12/11 02:56:32;;;;;;;49.90;24.40;;;1.00;99.90;;;;;;5071168;28;20481;-68
2022/12/11 02:59:07;;;;;;;47.97;24.73;;;1.00;99.90;;;;;;5075436;28;20840;-68
2022/12/11 03:01:34;;;;;;;52.10;25.60;;;0.80;99.90;;;;;;5078275;28;20706;-68
2022/12/11 03:04:00;;;;;;;45.27;24.67;;;0.80;99.90;;;;;;5073044;28;21275;-68
2022/12/11 03:06:32;;;;;;;49.03;25.27;;;0.80;99.90;;;;;;5082295;28;20458;-68
2022/12/11 03:08:59;;;;;;;51.10;25.20;;;1.00;99.90;;;;;;5073089;28;20462;-68
2022/12/11 03:11:26;;;;;;;53.30;25.60;;;1.00;99.90;;;;;;5076599;28;20867;-68
2022/12/11 03:13:53;;;;;;;46.33;24.10;;;0.90;99.90;;;;;;5075529;28;20462;-69
2022/12/11 03:16:30;;;;;;;47.53;25.70;;;0.90;99.90;;;;;;5072212;28;20889;-68
2022/12/11 03:19:07;;;;;;;46.37;24.50;;;0.90;99.90;;;;;;5075491;28;20469;-68
2022/12/11 03:21:40;;;;;;;44.07;24.80;;;1.00;99.90;;;;;;5072234;28;20549;-68
2022/12/11 03:24:10;;;;;;;47.73;26.07;;;0.90;99.90;;;;;;5074558;28;20961;-68
2022/12/11 03:26:42;;;;;;;42.10;25.13;;;0.90;99.90;;;;;;5077298;28;20787;-68
2022/12/11 03:29:17;;;;;;;40.80;24.73;;;0.90;99.90;;;;;;5079553;28;20461;-68
2022/12/11 03:31:50;;;;;;;46.10;24.77;;;0.90;99.90;;;;;;5075092;28;20472;-68
2022/12/11 03:34:22;;;;;;;42.03;22.90;;;0.80;99.90;;;;;;5071749;28;20468;-68
2022/12/11 03:36:51;;;;;;;47.77;25.37;;;0.80;99.90;;;;;;5075299;28;20481;-68
2022/12/11 03:39:24;;;;;;;37.97;24.13;;;0.90;99.90;;;;;;5073037;28;20803;-68
2022/12/11 03:41:51;;;;;;;45.83;25.50;;;0.90;99.90;;;;;;5087015;28;20527;-68
2022/12/11 03:44:20;;;;;;;46.73;22.77;;;0.90;99.90;;;;;;5073146;28;20481;-68
2022/12/11 03:46:50;;;;;;;39.00;22.93;;;0.90;99.90;;;;;;5078920;28;20465;-68
2022/12/11 03:49:20;;;;;;;36.80;22.87;;;0.80;99.90;;;;;;5077392;28;20921;-68
2022/12/11 03:51:48;;;;;;;38.20;22.27;;;0.90;99.90;;;;;;5080387;28;20768;-68
2022/12/11 03:54:16;;;;;;;35.33;21.50;;;0.70;99.90;;;;;;5081370;28;20480;-68
2022/12/11 03:56:45;;;;;;;41.60;22.50;;;0.80;99.90;;;;;;5079683;28;20568;-68
2022/12/11 03:59:12;;;;;;;39.70;23.20;;;0.80;99.90;;;;;;5075155;28;20465;-68
2022/12/11 04:01:40;;;;;;;42.17;22.80;;;0.80;99.90;;;;;;5080804;28;20458;-68
2022/12/11 04:04:08;;;;;;;31.50;20.10;;;0.80;99.90;;;;;;5082730;28;20945;-69
2022/12/11 04:06:35;;;;;;;35.40;22.43;;;0.80;99.90;;;;;;5084524;28;20936;-68
2022/12/11 04:09:02;;;;;;;32.60;19.27;;;0.80;99.90;;;;;;5080363;28;21045;-68
2022/12/11 04:11:34;;;;;;;30.83;21.80;;;0.80;99.90;;;;;;5084832;28;20469;-68
2022/12/11 04:16:46;;;;;;;36.97;22.13;;;0.80;99.90;;;;;;5085113;28;20997;-68
2022/12/11 04:25:21;;;;;;;30.90;21.40;;;0.70;99.90;;;;;;5083372;28;20831;-68
2022/12/11 04:27:51;;;;;;;34.77;20.60;;;0.70;99.90;;;;;;5079351;28;20476;-68
2022/12/11 04:30:22;;;;;;;38.43;20.10;;;0.70;99.90;;;;;;5080274;28;20580;-68
2022/12/11 04:32:50;;;;;;;40.37;21.43;;;0.70;99.90;;;;;;5075241;28;20909;-68
2022/12/11 04:35:18;;;;;;;38.07;21.90;;;0.70;99.90;;;;;;5079788;28;20461;-68
2022/12/11 04:37:46;;;;;;;37.27;21.70;;;0.60;99.90;;;;;;5082520;28;20501;-68
2022/12/11 04:40:14;;;;;;;35.17;20.80;;;0.70;99.90;;;;;;5085816;28;20956;-68
2022/12/11 04:42:42;;;;;;;35.73;20.20;;;0.80;99.90;;;;;;5079199;28;20464;-68
2022/12/11 04:45:10;;;;;;;39.00;20.53;;;0.70;99.90;;;;;;5073492;28;20472;-68
2022/12/11 04:47:38;;;;;;;36.63;19.83;;;0.70;99.90;;;;;;5079144;28;20878;-68
2022/12/11 04:50:08;;;;;;;37.50;20.40;;;0.70;99.90;;;;;;5081612;28;20462;-68
2022/12/11 04:52:35;;;;;;;40.50;22.30;;;0.80;99.90;;;;;;5080527;28;20469;-68
2022/12/11 04:55:04;;;;;;;40.27;23.07;;;0.70;99.90;;;;;;5078157;28;20469;-69
2022/12/11 04:57:30;;;;;;;39.87;22.93;;;0.80;99.90;;;;;;5076042;28;20565;-68
2022/12/11 04:59:58;;;;;;;32.07;20.27;;;0.70;99.90;;;;;;5077683;28;20466;-68
2022/12/11 05:02:25;;;;;;;39.40;20.77;;;0.80;99.90;;;;;;5077355;28;20533;-68
2022/12/11 05:04:52;;;;;;;43.43;20.93;;;0.80;99.90;;;;;;5080837;28;20512;-68
2022/12/11 05:07:19;;;;;;;29.73;18.80;;;0.90;99.90;;;;;;5079562;28;20964;-69
2022/12/11 05:09:45;;;;;;;35.00;20.50;;;0.90;99.90;;;;;;5080096;28;20449;-68
2022/12/11 05:12:14;;;;;;;30.27;20.97;;;0.80;99.90;;;;;;5081860;28;20469;-68
2022/12/11 05:14:41;;;;;;;36.60;21.30;;;0.90;99.90;;;;;;5077363;28;20480;-68
2022/12/11 05:17:08;;;;;;;44.87;22.60;;;1.00;99.90;;;;;;5077639;28;20728;-68
2022/12/11 05:19:36;;;;;;;36.30;19.83;;;1.00;99.90;;;;;;5082425;28;20869;-68
2022/12/11 05:22:02;;;;;;;33.93;20.77;;;1.00;99.90;;;;;;5080982;28;20470;-68
2022/12/11 05:24:29;;;;;;;37.83;20.50;;;1.00;99.90;;;;;;5079207;28;20476;-68
2022/12/11 05:26:56;;;;;;;26.77;18.10;;;0.90;99.90;;;;;;5073765;28;20470;-68
2022/12/11 05:29:24;;;;;;;30.87;20.27;;;1.00;99.90;;;;;;5077689;28;20465;-68
2022/12/11 05:31:51;;;;;;;32.27;19.70;;;1.00;99.90;;;;;;5076118;28;20829;-68
2022/12/11 05:34:18;;;;;;;30.00;18.90;;;1.00;99.90;;;;;;5081383;28;20925;-68
2022/12/11 05:36:46;;;;;;;34.87;19.17;;;1.00;99.90;;;;;;5082358;28;20484;-69
2022/12/11 05:39:13;;;;;;;28.43;20.00;;;1.00;99.90;;;;;;5080636;28;20465;-68
2022/12/11 05:41:40;;;;;;;23.13;19.77;;;1.00;99.90;;;;;;5076416;28;20538;-68
2022/12/11 05:44:07;;;;;;;28.70;19.93;;;0.90;99.90;;;;;;5078021;28;20455;-68
2022/12/11 05:46:35;;;;;;;28.87;19.10;;;1.00;99.90;;;;;;5082633;28;20469;-68
2022/12/11 05:49:03;;;;;;;32.73;20.23;;;0.90;99.90;;;;;;5088235;28;20468;-68
2022/12/11 05:51:30;;;;;;;26.47;18.50;;;0.90;99.90;;;;;;5091080;28;20606;-68
2022/12/11 05:54:00;;;;;;;30.70;19.90;;;0.90;99.90;;;;;;5072116;28;20481;-68
2022/12/11 05:56:28;;;;;;;26.53;18.20;;;1.00;99.90;;;;;;5074886;28;20522;-68
2022/12/11 05:58:56;;;;;;;31.57;20.17;;;1.00;99.90;;;;;;5076631;28;20497;-67
2022/12/11 06:01:25;;;;;;;27.47;17.77;;;1.00;99.90;;;;;;5078848;28;20469;-68
2022/12/11 06:03:54;;;;;;;28.40;18.90;;;1.00;99.90;;;;;;5079833;28;20498;-69
2022/12/11 06:06:22;;;;;;;29.13;18.77;;;1.00;99.90;;;;;;5081728;28;20465;-68
2022/12/11 06:08:50;;;;;;;31.67;19.20;;;1.00;99.90;;;;;;5075018;28;20473;-68
2022/12/11 06:11:17;;;;;;;29.37;18.10;;;1.00;99.90;;;;;;5076898;28;20549;-68
2022/12/11 06:13:44;;;;;;;30.60;20.60;;;1.00;99.90;;;;;;5081458;28;20488;-68
2022/12/11 06:16:11;;;;;;;29.87;20.23;;;0.90;99.90;;;;;;5085329;28;20511;-69
2022/12/11 06:18:39;;;;;;;29.70;19.30;;;1.00;99.90;;;;;;5080558;28;20574;-68
2022/12/11 06:21:16;;;;;;;27.77;20.07;;;1.00;99.90;;;;;;5075854;28;20496;-68
2022/12/11 06:23:44;;;;;;;27.97;17.90;;;1.00;99.90;;;;;;5079801;28;20463;-68
2022/12/11 06:26:11;;;;;;;24.53;17.57;;;1.00;99.90;;;;;;5077364;28;20464;-68
2022/12/11 06:28:38;;;;;;;23.90;18.83;;;1.00;99.90;;;;;;5080571;28;20465;-68
2022/12/11 06:31:06;;;;;;;30.07;18.00;;;1.10;99.90;;;;;;5081197;28;20464;-68
2022/12/11 06:33:34;;;;;;;22.43;19.20;;;1.00;99.90;;;;;;5077829;28;20856;-68
2022/12/11 06:36:02;;;;;;;28.00;19.47;;;1.00;99.90;;;;;;5072139;28;20469;-68
2022/12/11 06:38:31;;;;;;;20.03;16.37;;;1.10;99.90;;;;;;5078278;28;20580;-68
2022/12/11 06:41:00;;;;;;;25.33;18.47;;;1.10;99.90;;;;;;5077896;28;20485;-68
2022/12/11 06:43:26;;;;;;;23.63;17.47;;;1.00;99.90;;;;;;5078067;28;20446;-69
2022/12/11 06:45:54;;;;;;;25.27;19.10;;;1.00;99.90;;;;;;5075564;28;20969;-67
2022/12/11 06:48:21;;;;;;;21.77;18.00;;;1.00;99.90;;;;;;5070453;28;20465;-68
2022/12/11 06:50:47;;;;;;;29.20;19.90;;;1.00;99.90;;;;;;5079260;28;20461;-68
2022/12/11 06:53:15;;;;;;;21.50;15.67;;;1.00;99.90;;;;;;5074187;28;20490;-68
2022/12/11 06:55:43;;;;;;;21.47;16.80;;;1.00;99.90;;;;;;5081288;28;20458;-68
2022/12/11 06:58:10;;;;;;;21.17;17.73;;;1.00;99.90;;;;;;5077661;28;20497;-68
2022/12/11 07:00:38;;;;;;;22.47;16.33;;;1.00;99.90;;;;;;5075768;28;20485;-67
2022/12/11 07:03:06;;;;;;;21.00;16.10;;;1.00;99.90;;;;;;5076132;28;20462;-68
2022/12/11 07:05:33;;;;;;;20.20;17.37;;;0.90;99.90;;;;;;5080165;28;20494;-68
2022/12/11 07:08:00;;;;;;;18.13;14.90;;;0.80;99.90;;;;;;5077219;28;20462;-68
2022/12/11 07:10:26;;;;;;;17.10;15.33;;;0.70;99.90;;;;;;5077114;28;21271;-68
2022/12/11 07:12:54;;;;;;;22.77;16.83;;;0.70;99.90;;;;;;5071737;28;20462;-68
2022/12/11 07:15:21;;;;;;;17.13;15.33;;;0.70;99.90;;;;;;5077972;28;20482;-67
2022/12/11 07:17:48;;;;;;;17.63;15.03;;;0.60;99.90;;;;;;5075962;28;20490;-68
2022/12/11 07:20:16;;;;;;;16.17;14.40;;;0.60;99.90;;;;;;5078937;28;20468;-68
2022/12/11 07:22:42;;;;;;;22.80;16.67;;;0.70;99.90;;;;;;5069794;28;20493;-68
2022/12/11 07:25:09;;;;;;;17.30;15.07;;;0.70;99.90;;;;;;5085470;28;20465;-68
2022/12/11 07:27:36;;;;;;;19.30;15.47;;;0.70;99.90;;;;;;5086008;28;20470;-68
2022/12/11 07:30:05;;;;;;;23.30;16.17;;;0.70;99.90;;;;;;5078929;28;20469;-68
2022/12/11 07:32:32;;;;;;;21.90;16.37;;;0.60;99.90;;;;;;5076552;28;20465;-68
2022/12/11 07:34:58;;;;;;;17.83;15.50;;;0.70;99.90;;;;;;5083756;28;20469;-68
2022/12/11 07:37:25;;;;;;;22.67;15.50;;;0.70;99.90;;;;;;5084380;28;20473;-68
2022/12/11 07:39:52;;;;;;;25.43;17.53;;;;;;;;;;5086078;28;20967;-68
2022/12/11 07:42:19;;;;;;;17.30;15.60;;;0.70;99.90;;;;;;5079535;28;20467;-67
2022/12/11 07:44:45;;;;;;;19.87;15.70;;;0.70;99.90;;;;;;5077857;28;20458;-68
2022/12/11 07:47:13;;;;;;;19.23;16.73;;;0.70;99.90;;;;;;5083726;28;20932;-68
2022/12/11 07:49:40;;;;;;;19.67;16.13;;;0.70;99.90;;;;;;5081811;28;20579;-68
2022/12/11 07:52:07;;;;;;;17.97;14.90;;;0.70;99.90;;;;;;5074835;28;20467;-68
2022/12/11 07:54:34;;;;;;;17.77;14.90;;;0.70;99.90;;;;;;5084720;28;20956;-67
2022/12/11 07:57:00;;;;;;;18.33;15.63;;;0.60;99.90;;;;;;5088421;28;20456;-67
2022/12/11 07:59:27;;;;;;;22.23;17.13;;;0.60;99.90;;;;;;5085758;28;20485;-68
2022/12/11 08:01:54;;;;;;;18.57;16.70;;;0.60;99.90;;;;;;5084276;28;20530;-68
2022/12/11 08:04:22;;;;;;;20.30;16.73;;;0.50;99.90;;;;;;5090822;28;20531;-68
2022/12/11 08:06:48;;;;;;;22.63;17.93;;;0.50;99.90;;;;;;5081827;28;20823;-68
2022/12/11 08:09:15;;;;;;;19.63;17.73;;;0.60;99.90;;;;;;5085767;28;20465;-68
2022/12/11 08:11:42;;;;;;;20.60;18.00;;;0.70;99.90;;;;;;5081134;28;20478;-68
2022/12/11 08:14:09;;;;;;;22.97;17.47;;;0.80;99.90;;;;;;5086559;28;20468;-68
2022/12/11 08:16:35;;;;;;;19.97;17.13;;;0.80;99.90;;;;;;5084619;28;20505;-68
2022/12/11 08:19:02;;;;;;;21.07;16.80;;;0.90;99.90;;;;;;5085397;28;20487;-68
2022/12/11 08:21:30;;;;;;;22.87;18.03;;;0.90;99.90;;;;;;5079962;28;20466;-68
2022/12/11 08:23:57;;;;;;;17.20;15.50;;;0.70;99.90;;;;;;5078914;28;20464;-68
2022/12/11 08:26:28;;;;;;;18.63;15.50;;;0.70;99.90;;;;;;5081346;28;20465;-68
2022/12/11 08:28:56;;;;;;;25.20;18.97;;;;;;;;;;5084827;28;21063;-68
2022/12/11 08:31:23;;;;;;;24.20;17.33;;;2.00;99.90;;;;;;5078816;28;20462;-68
2022/12/11 08:33:50;;;;;;;22.30;16.57;;;0.40;99.90;;;;;;5077693;28;20461;-69
2022/12/11 08:36:19;;;;;;;21.03;16.40;;;0.60;99.90;;;;;;5082490;28;20550;-68
2022/12/11 08:38:48;;;;;;;23.53;17.60;;;0.70;99.90;;;;;;5081085;28;20615;-68
2022/12/11 08:41:17;;;;;;;23.40;18.53;;;0.60;99.90;;;;;;5074019;28;20465;-70
2022/12/11 08:43:44;;;;;;;24.63;18.27;;;0.50;99.90;;;;;;5079449;28;20974;-68
2022/12/11 08:46:12;;;;;;;23.90;20.60;;;0.70;99.90;;;;;;5079528;28;20512;-68
2022/12/11 08:48:41;;;;;;;20.00;17.97;;;0.70;99.90;;;;;;5086692;28;20466;-68
2022/12/11 08:51:10;;;;;;;19.27;16.57;;;0.90;99.90;;;;;;5082465;28;20481;-69
2022/12/11 08:53:39;;;;;;;19.23;17.17;;;;;;;;;;5081374;28;20506;-69
2022/12/11 08:56:09;;;;;;;19.90;17.77;;;0.90;99.90;;;;;;5088404;28;20557;-68
2022/12/11 08:58:37;;;;;;;20.37;18.20;;;0.80;99.90;;;;;;5080583;28;20854;-68
2022/12/11 09:01:08;;;;;;;22.27;18.83;;;0.80;99.90;;;;;;5083852;28;20560;-68
2022/12/11 09:03:35;;;;;;;20.10;17.90;;;0.60;99.90;;;;;;5078472;28;20573;-68
2022/12/11 09:06:05;;;;;;;25.30;18.47;;;0.50;99.90;;;;;;5083748;28;20461;-69
2022/12/11 09:08:33;;;;;;;23.63;18.47;;;0.70;99.90;;;;;;5078947;28;20557;-68
2022/12/11 09:11:04;;;;;;;24.43;18.47;;;0.70;99.90;;;;;;5075482;28;20458;-68
2022/12/11 09:13:32;;;;;;;23.63;18.57;;;0.80;99.90;;;;;;5079983;28;20825;-68
2022/12/11 09:15:59;;;;;;;22.80;18.30;;;0.90;99.90;;;;;;5082454;28;20477;-68
2022/12/11 09:18:27;;;;;;;20.30;16.90;;;0.80;99.90;;;;;;5077404;28;20517;-68
2022/12/11 09:21:01;;;;;;;22.13;18.13;;;0.70;99.90;;;;;;5089769;28;20906;-69
2022/12/11 09:23:28;;;;;;;21.63;19.30;;;0.80;99.90;;;;;;5083557;28;20982;-68
2022/12/11 09:25:56;;;;;;;23.77;19.27;;;0.80;99.90;;;;;;5078662;28;20474;-68
2022/12/11 09:28:23;;;;;;;24.00;18.30;;;0.70;99.90;;;;;;5087337;28;20496;-68
2022/12/11 09:30:52;;;;;;;22.80;17.40;;;0.80;99.90;;;;;;5086063;28;20473;-68
2022/12/11 09:33:20;;;;;;;23.67;18.40;;;0.80;99.90;;;;;;5075630;28;20461;-68
2022/12/11 09:35:57;;;;;;;24.83;19.20;;;0.80;99.90;;;;;;5089739;28;20471;-68
2022/12/11 09:38:24;;;;;;;30.13;20.93;;;0.80;99.90;;;;;;5080938;28;20499;-68
2022/12/11 09:40:51;;;;;;;27.53;19.83;;;0.80;99.90;;;;;;5081040;28;21225;-69
2022/12/11 09:43:30;;;;;;;28.57;19.90;;;1.00;99.90;;;;;;5080369;28;20467;-68
2022/12/11 09:46:02;;;;;;;30.03;21.67;;;1.10;99.90;;;;;;5085892;28;20549;-68
2022/12/11 09:48:32;;;;;;;32.67;23.27;;;1.00;99.90;;;;;;5081881;28;20461;-68
2022/12/11 09:51:06;;;;;;;31.90;22.13;;;1.00;99.90;;;;;;5079056;28;20558;-68
2022/12/11 09:53:35;;;;;;;26.60;21.40;;;1.00;99.90;;;;;;5084179;28;20758;-68
2022/12/11 09:56:11;;;;;;;30.90;23.50;;;1.00;99.90;;;;;;5080155;28;20457;-68
2022/12/11 09:58:51;;;;;;;28.80;21.97;;;1.10;99.90;;;;;;5085764;28;20592;-68
2022/12/11 10:01:25;;;;;;;32.70;23.77;;;1.10;99.90;;;;;;5082467;28;20454;-69
2022/12/11 10:04:11;;;;;;;31.07;22.93;;;1.20;99.90;;;;;;5091530;28;20495;-68
2022/12/11 10:06:46;;;;;;;37.40;24.53;;;1.00;99.90;;;;;;5086559;28;20471;-68
2022/12/11 10:09:18;;;;;;;31.60;22.03;;;;;;;;;;5080139;28;20465;-68
2022/12/11 10:11:58;;;;;;;34.40;24.63;;;1.30;99.90;;;;;;5087174;28;20521;-68
2022/12/11 10:14:34;;;;;;;34.03;24.50;;;1.00;99.90;;;;;;5087927;28;20473;-70
2022/12/11 10:17:10;;;;;;;34.40;26.27;;;1.00;99.90;;;;;;5082344;28;20466;-68
2022/12/11 10:19:38;;;;;;;31.00;25.40;;;0.90;99.90;;;;;;5084473;28;21021;-68
2022/12/11 10:22:05;;;;;;;34.23;25.30;;;1.10;99.90;;;;;;5087384;28;20481;-68
2022/12/11 10:24:37;;;;;;;36.67;26.43;;;1.20;99.90;;;;;;5086476;28;20486;-68
2022/12/11 10:27:13;;;;;;;37.83;25.60;;;;;;;;;;5083109;28;20482;-68
2022/12/11 10:29:40;;;;;;;26.90;23.60;;;1.20;99.90;;;;;;5087044;28;20473;-67
2022/12/11 10:32:22;;;;;;;37.87;25.70;;;1.10;99.90;;;;;;5080235;28;20469;-68
2022/12/11 10:34:51;;;;;;;31.33;25.43;;;;;;;;;;5076434;28;20461;-68
2022/12/11 10:37:18;;;;;;;36.10;26.87;;;;;;;;;;5085559;28;21123;-68
2022/12/11 10:39:45;;;;;;;37.00;27.20;;;;;;;;;;5083905;28;20612;-68
2022/12/11 10:42:16;;;;;;;39.40;27.97;;;;;;;;;;5084513;28;20771;-67
2022/12/11 10:44:55;;;;;;;40.57;26.07;;;;;;;;;;5084936;28;20462;-67
2022/12/11 10:47:23;;;;;;;33.57;26.20;;;;;;;;;;5086594;28;20914;-67
2022/12/11 10:49:53;;;;;;;32.43;28.50;;;;;;;;;;5086749;28;20460;-68
2022/12/11 10:52:22;;;;;;;32.23;25.63;;;1.00;99.90;;;;;;5083880;28;20821;-68
2022/12/11 10:54:55;;;;;;;34.50;25.67;;;;;;;;;;5084894;28;20517;-68
2022/12/11 10:57:27;;;;;;;33.30;26.23;;;;;;;;;;5079824;28;20488;-69
2022/12/11 10:59:54;;;;;;;26.60;23.87;;;1.00;99.90;;;;;;5084313;28;20492;-68
2022/12/11 11:02:25;;;;;;;34.70;27.20;;;1.20;99.90;;;;;;5077490;28;20976;-67
2022/12/11 11:04:53;;;;;;;32.33;24.17;;;1.10;99.90;;;;;;5086211;28;20488;-67
2022/12/11 11:07:23;;;;;;;33.87;25.87;;;1.20;99.90;;;;;;5092420;28;20873;-67
2022/12/11 11:09:53;;;;;;;28.30;25.20;;;1.20;99.90;;;;;;5087507;28;20471;-68
2022/12/11 11:12:23;;;;;;;33.00;26.77;;;1.30;99.90;;;;;;5086076;28;20469;-67
2022/12/11 11:14:59;;;;;;;30.47;27.17;;;1.20;99.90;;;;;;5084727;28;20528;-67
2022/12/11 11:17:28;;;;;;;28.77;25.90;;;1.40;99.90;;;;;;5081682;28;20556;-67
2022/12/11 11:19:57;;;;;;;28.23;25.20;;;1.50;99.90;;;;;;5079609;28;20494;-67
2022/12/11 11:22:24;;;;;;;31.63;26.30;;;1.50;99.90;;;;;;5081056;28;20462;-67
2022/12/11 11:24:55;;;;;;;37.90;31.30;;;1.50;99.90;;;;;;5085202;28;20465;-67
2022/12/11 11:27:34;;;;;;;39.30;32.30;;;1.40;99.90;;;;;;5085791;28;20963;-67
2022/12/11 11:30:03;;;;;;;42.53;31.00;;;1.20;99.90;;;;;;5089639;28;20503;-67
2022/12/11 11:32:37;;;;;;;34.97;30.40;;;1.50;99.90;;;;;;5093325;28;20466;-68
2022/12/11 11:35:18;;;;;;;38.60;31.67;;;1.50;99.90;;;;;;5083109;28;20494;-68
2022/12/11 11:37:54;;;;;;;34.57;29.17;;;1.50;99.90;;;;;;5080428;28;20797;-67
2022/12/11 11:40:24;;;;;;;33.00;29.50;;;;;;;;;;5086719;28;20783;-67
2022/12/11 11:43:01;;;;;;;33.70;29.97;;;1.60;99.90;;;;;;5079077;28;20520;-68
2022/12/11 11:45:32;;;;;;;34.23;29.13;;;1.50;99.90;;;;;;5078561;28;20462;-68
2022/12/11 11:48:10;;;;;;;47.67;30.83;;;1.60;99.90;;;;;;5087786;28;21220;-69
2022/12/11 11:50:43;;;;;;;35.00;30.40;;;1.60;99.90;;;;;;5082834;28;20466;-68
2022/12/11 11:53:17;;;;;;;39.20;30.40;;;1.60;99.90;;;;;;5081845;28;20527;-68
2022/12/11 11:55:52;;;;;;;37.03;29.87;;;1.80;99.90;;;;;;5080529;28;20877;-69
2022/12/11 11:58:23;;;;;;;32.57;29.07;;;1.80;99.90;;;;;;5079884;28;20453;-69
2022/12/11 12:00:53;;;;;;;31.73;27.30;;;1.90;99.90;;;;;;5086064;28;20498;-69
2022/12/11 12:03:22;;;;;;;28.60;25.60;;;;;;;;;;5084385;28;20465;-69
2022/12/11 12:05:54;;;;;;;28.33;25.37;;;1.90;99.90;;;;;;5099605;28;20462;-69
2022/12/11 12:08:32;;;;;;;30.10;25.50;;;2.00;99.90;;;;;;5072397;28;20467;-68
2022/12/11 12:11:04;;;;;;;29.23;26.20;;;2.10;99.90;;;;;;5080129;28;20462;-69
2022/12/11 12:13:40;;;;;;;31.77;26.10;;;2.20;99.90;;;;;;5083462;28;20821;-69
2022/12/11 12:16:13;;;;;;;30.90;26.20;;;;;;;;;;5073310;28;22456;-68
2022/12/11 12:18:51;;;;;;;29.00;24.37;;;2.20;99.90;;;;;;5084091;28;20459;-69
2022/12/11 12:21:27;;;;;;;29.30;24.47;;;2.40;99.90;;;;;;5094134;28;20970;-68
2022/12/11 12:24:05;;;;;;;26.90;23.73;;;2.40;99.90;;;;;;5088189;28;20469;-68
2022/12/11 12:26:34;;;;;;;28.30;24.90;;;2.30;99.90;;;;;;5076612;28;20814;-68
2022/12/11 12:29:07;;;;;;;32.93;24.90;;;;;;;;;;5079991;28;20453;-69
2022/12/11 12:31:50;;;;;;;35.03;26.30;;;2.20;99.90;;;;;;5092971;28;20783;-68
2022/12/11 12:34:22;;;;;;;26.87;24.03;;;;;;;;;;5072311;28;20463;-69
2022/12/11 12:36:59;;;;;;;32.33;24.37;;;2.20;99.90;;;;;;5082316;28;20462;-68
2022/12/11 12:39:37;;;;;;;28.53;23.63;;;2.00;99.90;;;;;;5076120;28;20697;-69
2022/12/11 12:42:09;;;;;;;30.67;23.00;;;;;;;;;;5082292;28;20953;-68
2022/12/11 12:44:42;;;;;;;27.07;22.83;;;2.10;99.90;;;;;;5078100;28;20493;-69
2022/12/11 12:47:12;;;;;;;27.10;22.93;;;2.10;99.90;;;;;;5079242;28;20553;-69
2022/12/11 12:49:44;;;;;;;23.93;20.93;;;2.20;99.90;;;;;;5075305;28;20470;-68
2022/12/11 12:52:14;;;;;;;23.10;20.90;;;;;;;;;;5080884;28;20519;-68
2022/12/11 12:55:12;;;;;;;24.93;21.37;;;2.20;99.90;;;;;;5080859;28;20514;-69
2022/12/11 12:57:31;;;;;;;24.10;21.50;;;;;;;;;;5077558;28;20462;-69
2022/12/11 12:59:59;;;;;;;24.60;21.70;;;2.10;99.90;;;;;;5077800;28;20480;-68
2022/12/11 13:02:26;;;;;;;24.27;21.80;;;2.00;99.90;;;;;;5083016;28;20465;-68
2022/12/11 13:04:59;;;;;;;23.53;21.20;;;;;;;;;;5083773;28;20481;-68